sensor_id;sensor_type;location;lat;lon;timestamp;P1;durP1;ratioP1;P2;durP2;ratioP2
50066;SDS011;35952;52.524;13.340;2023-11-21T00:00:23;7.83;;;6.47;;
50066;SDS011;35952;52.524;13.340;2023-11-21T00:02:54;10.40;;;8.13;;
50066;SDS011;35952;52.524;13.340;2023-11-21T00:05:20;11.37;;;9.23;;
50066;SDS011;35952;52.524;13.340;2023-11-21T00:07:48;13.17;;;9.47;;
50066;SDS011;35952;52.524;13.340;2023-11-21T00:10:14;14.33;;;9.57;;
50066;SDS011;35952;52.524;13.340;2023-11-21T00:12:40;14.80;;;10.30;;
50066;SDS011;35952;52.524;13.340;2023-11-21T00:15:09;13.77;;;10.17;;
50066;SDS011;35952;52.524;13.340;2023-11-21T00:17:38;16.90;;;11.33;;
50066;SDS011;35952;52.524;13.340;2023-11-21T00:20:07;18.27;;;13.17;;
50066;SDS011;35952;52.524;13.340;2023-11-21T00:22:34;17.37;;;11.50;;
50066;SDS011;35952;52.524;13.340;2023-11-21T00:25:00;21.73;;;11.90;;
50066;SDS011;35952;52.524;13.340;2023-11-21T00:27:28;19.53;;;13.93;;
50066;SDS011;35952;52.524;13.340;2023-11-21T00:30:02;23.63;;;14.10;;
50066;SDS011;35952;52.524;13.340;2023-11-21T00:32:39;24.13;;;15.20;;
50066;SDS011;35952;52.524;13.340;2023-11-21T00:35:10;22.07;;;15.13;;
50066;SDS011;35952;52.524;13.340;2023-11-21T00:37:36;27.40;;;15.20;;
50066;SDS011;35952;52.524;13.340;2023-11-21T00:40:04;31.63;;;16.43;;
50066;SDS011;35952;52.524;13.340;2023-11-21T00:42:36;23.13;;;14.97;;
50066;SDS011;35952;52.524;13.340;2023-11-21T00:45:04;30.10;;;17.17;;
50066;SDS011;35952;52.524;13.340;2023-11-21T00:47:35;29.27;;;17.53;;
50066;SDS011;35952;52.524;13.340;2023-11-21T00:50:07;32.67;;;17.87;;
50066;SDS011;35952;52.524;13.340;2023-11-21T00:52:34;30.17;;;18.07;;
50066;SDS011;35952;52.524;13.340;2023-11-21T00:55:04;35.37;;;20.13;;
50066;SDS011;35952;52.524;13.340;2023-11-21T00:57:43;33.03;;;18.00;;
50066;SDS011;35952;52.524;13.340;2023-11-21T01:00:09;33.70;;;19.20;;
50066;SDS011;35952;52.524;13.340;2023-11-21T01:02:44;44.37;;;19.10;;
50066;SDS011;35952;52.524;13.340;2023-11-21T01:05:13;43.03;;;22.70;;
50066;SDS011;35952;52.524;13.340;2023-11-21T01:07:41;39.17;;;20.50;;
50066;SDS011;35952;52.524;13.340;2023-11-21T01:10:12;45.47;;;21.73;;
50066;SDS011;35952;52.524;13.340;2023-11-21T01:12:41;40.43;;;20.20;;
50066;SDS011;35952;52.524;13.340;2023-11-21T01:15:09;46.23;;;22.97;;
50066;SDS011;35952;52.524;13.340;2023-11-21T01:17:37;46.90;;;22.23;;
50066;SDS011;35952;52.524;13.340;2023-11-21T01:20:06;50.33;;;22.67;;
50066;SDS011;35952;52.524;13.340;2023-11-21T01:22:38;46.23;;;22.27;;
50066;SDS011;35952;52.524;13.340;2023-11-21T01:25:04;41.77;;;20.23;;
50066;SDS011;35952;52.524;13.340;2023-11-21T01:27:32;49.23;;;21.80;;
50066;SDS011;35952;52.524;13.340;2023-11-21T01:30:03;42.57;;;20.77;;
50066;SDS011;35952;52.524;13.340;2023-11-21T01:32:30;37.20;;;19.13;;
50066;SDS011;35952;52.524;13.340;2023-11-21T01:35:03;38.20;;;19.17;;
50066;SDS011;35952;52.524;13.340;2023-11-21T01:37:34;39.23;;;18.70;;
50066;SDS011;35952;52.524;13.340;2023-11-21T01:40:05;31.43;;;17.97;;
50066;SDS011;35952;52.524;13.340;2023-11-21T01:42:38;34.23;;;19.87;;
50066;SDS011;35952;52.524;13.340;2023-11-21T01:45:27;32.30;;;17.93;;
50066;SDS011;35952;52.524;13.340;2023-11-21T01:47:54;40.67;;;17.97;;
50066;SDS011;35952;52.524;13.340;2023-11-21T01:50:30;35.60;;;17.20;;
50066;SDS011;35952;52.524;13.340;2023-11-21T01:52:56;32.27;;;19.67;;
50066;SDS011;35952;52.524;13.340;2023-11-21T01:55:26;38.40;;;17.13;;
50066;SDS011;35952;52.524;13.340;2023-11-21T01:57:58;40.00;;;17.43;;
50066;SDS011;35952;52.524;13.340;2023-11-21T02:00:27;34.03;;;15.97;;
50066;SDS011;35952;52.524;13.340;2023-11-21T02:02:53;33.10;;;14.73;;
50066;SDS011;35952;52.524;13.340;2023-11-21T02:05:19;34.13;;;19.03;;
50066;SDS011;35952;52.524;13.340;2023-11-21T02:07:46;26.53;;;14.27;;
50066;SDS011;35952;52.524;13.340;2023-11-21T02:10:20;26.33;;;13.80;;
50066;SDS011;35952;52.524;13.340;2023-11-21T02:12:51;28.07;;;12.63;;
50066;SDS011;35952;52.524;13.340;2023-11-21T02:15:19;30.60;;;15.03;;
50066;SDS011;35952;52.524;13.340;2023-11-21T02:17:53;23.07;;;13.63;;
50066;SDS011;35952;52.524;13.340;2023-11-21T02:20:34;20.40;;;12.10;;
50066;SDS011;35952;52.524;13.340;2023-11-21T02:23:09;22.30;;;14.43;;
50066;SDS011;35952;52.524;13.340;2023-11-21T02:25:34;26.97;;;12.77;;
50066;SDS011;35952;52.524;13.340;2023-11-21T02:28:03;18.30;;;11.40;;
50066;SDS011;35952;52.524;13.340;2023-11-21T02:30:31;22.90;;;12.20;;
50066;SDS011;35952;52.524;13.340;2023-11-21T02:33:04;17.17;;;9.67;;
50066;SDS011;35952;52.524;13.340;2023-11-21T02:35:41;14.87;;;9.93;;
50066;SDS011;35952;52.524;13.340;2023-11-21T02:38:12;17.23;;;9.27;;
50066;SDS011;35952;52.524;13.340;2023-11-21T02:40:38;14.63;;;10.63;;
50066;SDS011;35952;52.524;13.340;2023-11-21T02:43:04;14.10;;;9.80;;
50066;SDS011;35952;52.524;13.340;2023-11-21T02:45:32;17.90;;;10.57;;
50066;SDS011;35952;52.524;13.340;2023-11-21T02:48:19;20.00;;;10.47;;
50066;SDS011;35952;52.524;13.340;2023-11-21T02:50:44;18.57;;;11.07;;
50066;SDS011;35952;52.524;13.340;2023-11-21T02:53:12;16.30;;;10.70;;
50066;SDS011;35952;52.524;13.340;2023-11-21T02:55:38;16.87;;;10.13;;
50066;SDS011;35952;52.524;13.340;2023-11-21T02:58:06;17.10;;;11.53;;
50066;SDS011;35952;52.524;13.340;2023-11-21T03:00:36;16.60;;;8.83;;
50066;SDS011;35952;52.524;13.340;2023-11-21T03:03:09;14.10;;;10.17;;
50066;SDS011;35952;52.524;13.340;2023-11-21T03:05:46;15.20;;;12.33;;
50066;SDS011;35952;52.524;13.340;2023-11-21T03:08:11;10.53;;;8.97;;
50066;SDS011;35952;52.524;13.340;2023-11-21T03:10:39;12.10;;;9.10;;
50066;SDS011;35952;52.524;13.340;2023-11-21T03:13:10;15.57;;;9.10;;
50066;SDS011;35952;52.524;13.340;2023-11-21T03:15:36;9.53;;;7.93;;
50066;SDS011;35952;52.524;13.340;2023-11-21T03:18:04;11.00;;;9.40;;
50066;SDS011;35952;52.524;13.340;2023-11-21T03:20:35;13.33;;;9.00;;
50066;SDS011;35952;52.524;13.340;2023-11-21T03:23:01;13.43;;;10.70;;
50066;SDS011;35952;52.524;13.340;2023-11-21T03:25:33;10.50;;;8.80;;
50066;SDS011;35952;52.524;13.340;2023-11-21T03:28:05;11.77;;;10.30;;
50066;SDS011;35952;52.524;13.340;2023-11-21T03:30:33;12.80;;;10.60;;
50066;SDS011;35952;52.524;13.340;2023-11-21T03:33:00;11.07;;;9.83;;
50066;SDS011;35952;52.524;13.340;2023-11-21T03:35:25;14.17;;;9.10;;
50066;SDS011;35952;52.524;13.340;2023-11-21T03:37:51;14.03;;;10.77;;
50066;SDS011;35952;52.524;13.340;2023-11-21T03:40:22;12.20;;;9.13;;
50066;SDS011;35952;52.524;13.340;2023-11-21T03:42:53;13.63;;;10.10;;
50066;SDS011;35952;52.524;13.340;2023-11-21T03:45:22;14.17;;;9.70;;
50066;SDS011;35952;52.524;13.340;2023-11-21T03:47:55;13.03;;;10.33;;
50066;SDS011;35952;52.524;13.340;2023-11-21T03:50:21;12.73;;;9.20;;
50066;SDS011;35952;52.524;13.340;2023-11-21T03:55:41;14.27;;;10.70;;
50066;SDS011;35952;52.524;13.340;2023-11-21T03:58:07;12.97;;;10.07;;
50066;SDS011;35952;52.524;13.340;2023-11-21T04:00:38;14.77;;;11.13;;
50066;SDS011;35952;52.524;13.340;2023-11-21T04:03:06;12.70;;;10.80;;
50066;SDS011;35952;52.524;13.340;2023-11-21T04:05:31;24.13;;;15.00;;
50066;SDS011;35952;52.524;13.340;2023-11-21T04:07:57;14.60;;;10.83;;
50066;SDS011;35952;52.524;13.340;2023-11-21T04:10:26;16.10;;;10.93;;
50066;SDS011;35952;52.524;13.340;2023-11-21T04:12:56;12.97;;;10.97;;
50066;SDS011;35952;52.524;13.340;2023-11-21T04:15:25;13.83;;;11.10;;
50066;SDS011;35952;52.524;13.340;2023-11-21T04:17:53;18.43;;;11.27;;
50066;SDS011;35952;52.524;13.340;2023-11-21T04:20:19;15.70;;;11.33;;
50066;SDS011;35952;52.524;13.340;2023-11-21T04:22:48;15.20;;;12.03;;
50066;SDS011;35952;52.524;13.340;2023-11-21T04:25:14;20.53;;;13.90;;
50066;SDS011;35952;52.524;13.340;2023-11-21T04:27:46;13.67;;;11.70;;
50066;SDS011;35952;52.524;13.340;2023-11-21T04:30:12;16.67;;;11.70;;
50066;SDS011;35952;52.524;13.340;2023-11-21T04:32:41;14.90;;;10.67;;
50066;SDS011;35952;52.524;13.340;2023-11-21T04:35:20;13.80;;;10.90;;
50066;SDS011;35952;52.524;13.340;2023-11-21T04:37:46;12.60;;;10.10;;
50066;SDS011;35952;52.524;13.340;2023-11-21T04:40:14;14.00;;;10.50;;
50066;SDS011;35952;52.524;13.340;2023-11-21T04:42:43;15.80;;;11.30;;
50066;SDS011;35952;52.524;13.340;2023-11-21T04:45:09;16.77;;;11.47;;
50066;SDS011;35952;52.524;13.340;2023-11-21T04:47:36;14.33;;;11.23;;
50066;SDS011;35952;52.524;13.340;2023-11-21T04:50:02;17.90;;;11.70;;
50066;SDS011;35952;52.524;13.340;2023-11-21T04:52:29;15.07;;;11.70;;
50066;SDS011;35952;52.524;13.340;2023-11-21T04:54:55;14.80;;;9.53;;
50066;SDS011;35952;52.524;13.340;2023-11-21T04:57:29;10.93;;;9.10;;
50066;SDS011;35952;52.524;13.340;2023-11-21T04:59:57;10.47;;;8.43;;
50066;SDS011;35952;52.524;13.340;2023-11-21T05:02:26;12.80;;;9.93;;
50066;SDS011;35952;52.524;13.340;2023-11-21T05:04:51;18.23;;;10.77;;
50066;SDS011;35952;52.524;13.340;2023-11-21T05:07:21;13.23;;;9.93;;
50066;SDS011;35952;52.524;13.340;2023-11-21T05:09:49;11.97;;;9.43;;
50066;SDS011;35952;52.524;13.340;2023-11-21T05:12:17;11.50;;;9.10;;
50066;SDS011;35952;52.524;13.340;2023-11-21T05:14:45;15.70;;;9.80;;
50066;SDS011;35952;52.524;13.340;2023-11-21T05:17:14;11.00;;;9.20;;
50066;SDS011;35952;52.524;13.340;2023-11-21T05:19:40;11.33;;;8.97;;
50066;SDS011;35952;52.524;13.340;2023-11-21T05:22:13;10.60;;;8.13;;
50066;SDS011;35952;52.524;13.340;2023-11-21T05:24:39;11.70;;;9.57;;
50066;SDS011;35952;52.524;13.340;2023-11-21T05:27:05;17.43;;;9.23;;
50066;SDS011;35952;52.524;13.340;2023-11-21T05:29:33;10.83;;;8.77;;
50066;SDS011;35952;52.524;13.340;2023-11-21T05:32:01;11.57;;;9.10;;
50066;SDS011;35952;52.524;13.340;2023-11-21T05:34:31;11.93;;;8.73;;
50066;SDS011;35952;52.524;13.340;2023-11-21T05:37:00;10.70;;;9.03;;
50066;SDS011;35952;52.524;13.340;2023-11-21T05:39:28;13.57;;;8.73;;
50066;SDS011;35952;52.524;13.340;2023-11-21T05:41:59;11.53;;;7.80;;
50066;SDS011;35952;52.524;13.340;2023-11-21T05:44:31;13.20;;;9.70;;
50066;SDS011;35952;52.524;13.340;2023-11-21T05:46:59;14.57;;;11.23;;
50066;SDS011;35952;52.524;13.340;2023-11-21T05:49:24;14.80;;;9.00;;
50066;SDS011;35952;52.524;13.340;2023-11-21T05:51:54;13.03;;;9.03;;
50066;SDS011;35952;52.524;13.340;2023-11-21T05:54:20;13.07;;;8.67;;
50066;SDS011;35952;52.524;13.340;2023-11-21T05:56:58;10.50;;;8.43;;
50066;SDS011;35952;52.524;13.340;2023-11-21T05:59:24;13.23;;;9.50;;
50066;SDS011;35952;52.524;13.340;2023-11-21T06:01:50;10.40;;;8.20;;
50066;SDS011;35952;52.524;13.340;2023-11-21T06:04:15;12.13;;;8.03;;
50066;SDS011;35952;52.524;13.340;2023-11-21T06:06:43;12.53;;;9.20;;
50066;SDS011;35952;52.524;13.340;2023-11-21T06:09:09;10.77;;;7.93;;
50066;SDS011;35952;52.524;13.340;2023-11-21T06:11:36;9.93;;;8.20;;
50066;SDS011;35952;52.524;13.340;2023-11-21T06:14:06;11.83;;;8.37;;
50066;SDS011;35952;52.524;13.340;2023-11-21T06:16:34;10.73;;;7.30;;
50066;SDS011;35952;52.524;13.340;2023-11-21T06:19:05;9.93;;;6.30;;
50066;SDS011;35952;52.524;13.340;2023-11-21T06:21:31;9.30;;;7.47;;
50066;SDS011;35952;52.524;13.340;2023-11-21T06:24:01;9.53;;;7.53;;
50066;SDS011;35952;52.524;13.340;2023-11-21T06:26:34;12.13;;;6.90;;
50066;SDS011;35952;52.524;13.340;2023-11-21T06:29:02;9.30;;;7.30;;
50066;SDS011;35952;52.524;13.340;2023-11-21T06:31:30;18.67;;;7.27;;
50066;SDS011;35952;52.524;13.340;2023-11-21T06:33:59;11.63;;;7.60;;
50066;SDS011;35952;52.524;13.340;2023-11-21T06:36:28;11.10;;;6.53;;
50066;SDS011;35952;52.524;13.340;2023-11-21T06:38:56;6.07;;;5.20;;
50066;SDS011;35952;52.524;13.340;2023-11-21T06:41:22;8.50;;;7.10;;
50066;SDS011;35952;52.524;13.340;2023-11-21T06:43:48;7.70;;;6.30;;
50066;SDS011;35952;52.524;13.340;2023-11-21T06:46:14;7.73;;;6.93;;
50066;SDS011;35952;52.524;13.340;2023-11-21T06:48:41;8.40;;;5.50;;
50066;SDS011;35952;52.524;13.340;2023-11-21T06:51:07;6.47;;;5.20;;
50066;SDS011;35952;52.524;13.340;2023-11-21T06:53:33;7.00;;;4.93;;
50066;SDS011;35952;52.524;13.340;2023-11-21T06:55:59;7.33;;;5.07;;
50066;SDS011;35952;52.524;13.340;2023-11-21T06:58:24;8.27;;;6.50;;
50066;SDS011;35952;52.524;13.340;2023-11-21T07:00:50;6.60;;;5.30;;
50066;SDS011;35952;52.524;13.340;2023-11-21T07:03:17;6.40;;;5.40;;
50066;SDS011;35952;52.524;13.340;2023-11-21T07:05:44;7.63;;;6.13;;
50066;SDS011;35952;52.524;13.340;2023-11-21T07:08:10;8.13;;;6.73;;
50066;SDS011;35952;52.524;13.340;2023-11-21T07:10:35;7.83;;;5.90;;
50066;SDS011;35952;52.524;13.340;2023-11-21T07:13:01;6.80;;;6.13;;
50066;SDS011;35952;52.524;13.340;2023-11-21T07:15:27;8.00;;;6.83;;
50066;SDS011;35952;52.524;13.340;2023-11-21T07:17:54;9.30;;;6.33;;
50066;SDS011;35952;52.524;13.340;2023-11-21T07:20:19;7.03;;;6.10;;
50066;SDS011;35952;52.524;13.340;2023-11-21T07:22:46;10.10;;;6.40;;
50066;SDS011;35952;52.524;13.340;2023-11-21T07:25:12;11.63;;;6.27;;
50066;SDS011;35952;52.524;13.340;2023-11-21T07:27:37;6.83;;;6.10;;
50066;SDS011;35952;52.524;13.340;2023-11-21T07:30:03;6.67;;;6.07;;
50066;SDS011;35952;52.524;13.340;2023-11-21T07:32:30;8.30;;;7.37;;
50066;SDS011;35952;52.524;13.340;2023-11-21T07:34:56;7.70;;;6.90;;
50066;SDS011;35952;52.524;13.340;2023-11-21T07:37:27;7.17;;;6.10;;
50066;SDS011;35952;52.524;13.340;2023-11-21T07:39:55;7.27;;;6.57;;
50066;SDS011;35952;52.524;13.340;2023-11-21T07:42:23;12.17;;;5.93;;
50066;SDS011;35952;52.524;13.340;2023-11-21T07:44:51;7.83;;;6.33;;
50066;SDS011;35952;52.524;13.340;2023-11-21T07:47:17;7.00;;;6.30;;
50066;SDS011;35952;52.524;13.340;2023-11-21T07:49:43;9.50;;;6.67;;
50066;SDS011;35952;52.524;13.340;2023-11-21T07:52:10;6.03;;;5.13;;
50066;SDS011;35952;52.524;13.340;2023-11-21T07:54:38;7.90;;;6.33;;
50066;SDS011;35952;52.524;13.340;2023-11-21T07:57:03;9.00;;;6.13;;
50066;SDS011;35952;52.524;13.340;2023-11-21T07:59:29;9.30;;;6.93;;
50066;SDS011;35952;52.524;13.340;2023-11-21T08:01:55;8.27;;;5.87;;
50066;SDS011;35952;52.524;13.340;2023-11-21T08:04:21;8.47;;;6.10;;
50066;SDS011;35952;52.524;13.340;2023-11-21T08:06:47;9.07;;;5.93;;
50066;SDS011;35952;52.524;13.340;2023-11-21T08:09:12;8.70;;;6.20;;
50066;SDS011;35952;52.524;13.340;2023-11-21T08:11:39;8.07;;;6.07;;
50066;SDS011;35952;52.524;13.340;2023-11-21T08:14:05;7.70;;;6.47;;
50066;SDS011;35952;52.524;13.340;2023-11-21T08:16:30;6.70;;;6.10;;
50066;SDS011;35952;52.524;13.340;2023-11-21T08:18:56;8.40;;;6.47;;
50066;SDS011;35952;52.524;13.340;2023-11-21T08:21:22;8.40;;;7.13;;
50066;SDS011;35952;52.524;13.340;2023-11-21T08:23:53;8.17;;;6.77;;
50066;SDS011;35952;52.524;13.340;2023-11-21T08:26:20;7.00;;;6.30;;
50066;SDS011;35952;52.524;13.340;2023-11-21T08:28:47;6.40;;;5.80;;
50066;SDS011;35952;52.524;13.340;2023-11-21T08:31:13;7.33;;;6.10;;
50066;SDS011;35952;52.524;13.340;2023-11-21T08:33:39;10.97;;;8.53;;
50066;SDS011;35952;52.524;13.340;2023-11-21T08:36:08;9.80;;;6.60;;
50066;SDS011;35952;52.524;13.340;2023-11-21T08:38:35;7.30;;;6.07;;
50066;SDS011;35952;52.524;13.340;2023-11-21T08:41:05;10.53;;;6.13;;
50066;SDS011;35952;52.524;13.340;2023-11-21T08:43:36;5.27;;;4.67;;
50066;SDS011;35952;52.524;13.340;2023-11-21T08:46:04;6.73;;;5.40;;
50066;SDS011;35952;52.524;13.340;2023-11-21T08:48:31;7.00;;;5.30;;
50066;SDS011;35952;52.524;13.340;2023-11-21T08:50:56;7.60;;;6.57;;
50066;SDS011;35952;52.524;13.340;2023-11-21T08:53:22;9.30;;;6.47;;
50066;SDS011;35952;52.524;13.340;2023-11-21T08:55:47;7.20;;;6.33;;
50066;SDS011;35952;52.524;13.340;2023-11-21T08:58:15;7.93;;;6.40;;
50066;SDS011;35952;52.524;13.340;2023-11-21T09:00:41;8.00;;;6.57;;
50066;SDS011;35952;52.524;13.340;2023-11-21T09:03:06;9.03;;;6.50;;
50066;SDS011;35952;52.524;13.340;2023-11-21T09:05:34;6.90;;;5.63;;
50066;SDS011;35952;52.524;13.340;2023-11-21T09:08:03;7.53;;;5.53;;
50066;SDS011;35952;52.524;13.340;2023-11-21T09:10:29;14.47;;;9.57;;
50066;SDS011;35952;52.524;13.340;2023-11-21T09:12:54;11.27;;;7.63;;
50066;SDS011;35952;52.524;13.340;2023-11-21T09:15:20;10.33;;;7.80;;
50066;SDS011;35952;52.524;13.340;2023-11-21T09:17:46;10.77;;;7.27;;
50066;SDS011;35952;52.524;13.340;2023-11-21T09:20:11;9.20;;;6.60;;
50066;SDS011;35952;52.524;13.340;2023-11-21T09:22:37;10.03;;;6.30;;
50066;SDS011;35952;52.524;13.340;2023-11-21T09:25:04;8.47;;;6.23;;
50066;SDS011;35952;52.524;13.340;2023-11-21T09:27:30;7.77;;;6.00;;
50066;SDS011;35952;52.524;13.340;2023-11-21T09:29:59;10.47;;;6.27;;
50066;SDS011;35952;52.524;13.340;2023-11-21T09:32:24;10.57;;;5.37;;
50066;SDS011;35952;52.524;13.340;2023-11-21T09:34:50;8.40;;;6.60;;
50066;SDS011;35952;52.524;13.340;2023-11-21T09:37:16;9.73;;;6.03;;
50066;SDS011;35952;52.524;13.340;2023-11-21T09:39:41;11.50;;;6.37;;
50066;SDS011;35952;52.524;13.340;2023-11-21T09:42:12;13.53;;;6.30;;
50066;SDS011;35952;52.524;13.340;2023-11-21T09:45:05;10.33;;;7.07;;
50066;SDS011;35952;52.524;13.340;2023-11-21T09:47:49;9.10;;;6.20;;
50066;SDS011;35952;52.524;13.340;2023-11-21T09:50:17;12.00;;;7.90;;
50066;SDS011;35952;52.524;13.340;2023-11-21T09:52:57;14.87;;;7.00;;
50066;SDS011;35952;52.524;13.340;2023-11-21T09:55:36;12.87;;;7.40;;
50066;SDS011;35952;52.524;13.340;2023-11-21T09:58:05;11.97;;;8.50;;
50066;SDS011;35952;52.524;13.340;2023-11-21T10:00:33;18.53;;;9.50;;
50066;SDS011;35952;52.524;13.340;2023-11-21T10:02:59;17.77;;;9.63;;
50066;SDS011;35952;52.524;13.340;2023-11-21T10:05:26;15.80;;;10.07;;
50066;SDS011;35952;52.524;13.340;2023-11-21T10:07:52;14.87;;;7.70;;
50066;SDS011;35952;52.524;13.340;2023-11-21T10:10:20;21.77;;;14.47;;
50066;SDS011;35952;52.524;13.340;2023-11-21T10:12:48;18.53;;;8.43;;
50066;SDS011;35952;52.524;13.340;2023-11-21T10:15:18;17.73;;;8.47;;
50066;SDS011;35952;52.524;13.340;2023-11-21T10:17:48;12.50;;;7.60;;
50066;SDS011;35952;52.524;13.340;2023-11-21T10:20:14;14.57;;;7.97;;
50066;SDS011;35952;52.524;13.340;2023-11-21T10:22:41;245.80;;;27.13;;
50066;SDS011;35952;52.524;13.340;2023-11-21T10:25:08;12.67;;;8.30;;
50066;SDS011;35952;52.524;13.340;2023-11-21T10:27:34;18.40;;;9.30;;
50066;SDS011;35952;52.524;13.340;2023-11-21T10:30:05;14.43;;;9.10;;
50066;SDS011;35952;52.524;13.340;2023-11-21T10:32:31;17.67;;;9.83;;
50066;SDS011;35952;52.524;13.340;2023-11-21T10:34:58;13.17;;;7.53;;
50066;SDS011;35952;52.524;13.340;2023-11-21T10:37:32;15.57;;;8.00;;
50066;SDS011;35952;52.524;13.340;2023-11-21T10:40:01;12.33;;;6.97;;
50066;SDS011;35952;52.524;13.340;2023-11-21T10:42:42;10.20;;;6.80;;
50066;SDS011;35952;52.524;13.340;2023-11-21T10:45:08;12.00;;;7.10;;
50066;SDS011;35952;52.524;13.340;2023-11-21T10:47:40;11.33;;;6.40;;
50066;SDS011;35952;52.524;13.340;2023-11-21T10:50:07;11.20;;;7.10;;
50066;SDS011;35952;52.524;13.340;2023-11-21T10:52:44;7.33;;;5.80;;
50066;SDS011;35952;52.524;13.340;2023-11-21T10:55:19;9.00;;;6.53;;
50066;SDS011;35952;52.524;13.340;2023-11-21T10:57:51;17.13;;;8.37;;
50066;SDS011;35952;52.524;13.340;2023-11-21T11:00:18;12.80;;;7.20;;
50066;SDS011;35952;52.524;13.340;2023-11-21T11:02:53;16.10;;;7.87;;
50066;SDS011;35952;52.524;13.340;2023-11-21T11:05:25;12.97;;;7.93;;
50066;SDS011;35952;52.524;13.340;2023-11-21T11:10:32;9.23;;;5.43;;
50066;SDS011;35952;52.524;13.340;2023-11-21T11:12:58;7.70;;;5.03;;
50066;SDS011;35952;52.524;13.340;2023-11-21T11:15:24;8.57;;;4.70;;
50066;SDS011;35952;52.524;13.340;2023-11-21T11:17:51;4.50;;;3.80;;
50066;SDS011;35952;52.524;13.340;2023-11-21T11:20:17;8.47;;;4.80;;
50066;SDS011;35952;52.524;13.340;2023-11-21T11:23:08;5.93;;;4.43;;
50066;SDS011;35952;52.524;13.340;2023-11-21T11:26:12;9.93;;;4.87;;
50066;SDS011;35952;52.524;13.340;2023-11-21T11:28:55;7.07;;;5.20;;
50066;SDS011;35952;52.524;13.340;2023-11-21T11:34:26;7.03;;;4.70;;
50066;SDS011;35952;52.524;13.340;2023-11-21T11:42:06;5.23;;;4.17;;
50066;SDS011;35952;52.524;13.340;2023-11-21T11:47:18;5.73;;;4.50;;
50066;SDS011;35952;52.524;13.340;2023-11-21T11:55:16;5.27;;;4.03;;
50066;SDS011;35952;52.524;13.340;2023-11-21T11:57:47;5.43;;;4.87;;
50066;SDS011;35952;52.524;13.340;2023-11-21T12:00:19;4.83;;;4.33;;
50066;SDS011;35952;52.524;13.340;2023-11-21T12:02:53;7.90;;;5.10;;
50066;SDS011;35952;52.524;13.340;2023-11-21T12:05:22;7.93;;;6.07;;
50066;SDS011;35952;52.524;13.340;2023-11-21T12:10:15;6.00;;;5.40;;
50066;SDS011;35952;52.524;13.340;2023-11-21T12:12:43;5.87;;;5.37;;
50066;SDS011;35952;52.524;13.340;2023-11-21T12:15:11;4.70;;;4.30;;
50066;SDS011;35952;52.524;13.340;2023-11-21T12:17:37;7.50;;;5.03;;
50066;SDS011;35952;52.524;13.340;2023-11-21T12:20:04;5.10;;;4.60;;
50066;SDS011;35952;52.524;13.340;2023-11-21T12:22:31;4.87;;;4.17;;
50066;SDS011;35952;52.524;13.340;2023-11-21T12:24:57;6.07;;;5.47;;
50066;SDS011;35952;52.524;13.340;2023-11-21T12:27:23;6.30;;;4.67;;
50066;SDS011;35952;52.524;13.340;2023-11-21T12:29:48;6.03;;;4.67;;
50066;SDS011;35952;52.524;13.340;2023-11-21T12:32:14;7.43;;;5.80;;
50066;SDS011;35952;52.524;13.340;2023-11-21T12:34:42;5.40;;;4.70;;
50066;SDS011;35952;52.524;13.340;2023-11-21T12:37:08;10.50;;;8.23;;
50066;SDS011;35952;52.524;13.340;2023-11-21T12:39:34;7.10;;;6.03;;
50066;SDS011;35952;52.524;13.340;2023-11-21T12:41:59;5.47;;;4.97;;
50066;SDS011;35952;52.524;13.340;2023-11-21T12:44:27;5.23;;;4.80;;
50066;SDS011;35952;52.524;13.340;2023-11-21T12:46:52;5.10;;;4.60;;
50066;SDS011;35952;52.524;13.340;2023-11-21T12:49:18;7.80;;;4.57;;
50066;SDS011;35952;52.524;13.340;2023-11-21T12:51:45;5.63;;;4.57;;
50066;SDS011;35952;52.524;13.340;2023-11-21T12:54:11;6.23;;;5.30;;
50066;SDS011;35952;52.524;13.340;2023-11-21T12:56:38;6.63;;;4.60;;
50066;SDS011;35952;52.524;13.340;2023-11-21T12:59:04;5.10;;;4.70;;
50066;SDS011;35952;52.524;13.340;2023-11-21T13:01:29;4.77;;;4.37;;
50066;SDS011;35952;52.524;13.340;2023-11-21T13:03:59;6.90;;;6.20;;
50066;SDS011;35952;52.524;13.340;2023-11-21T13:06:24;7.33;;;5.10;;
50066;SDS011;35952;52.524;13.340;2023-11-21T13:08:51;5.83;;;4.97;;
50066;SDS011;35952;52.524;13.340;2023-11-21T13:11:17;6.13;;;5.57;;
50066;SDS011;35952;52.524;13.340;2023-11-21T13:13:43;7.03;;;5.37;;
50066;SDS011;35952;52.524;13.340;2023-11-21T13:16:08;6.77;;;5.57;;
50066;SDS011;35952;52.524;13.340;2023-11-21T13:18:35;6.83;;;5.77;;
50066;SDS011;35952;52.524;13.340;2023-11-21T13:21:02;8.33;;;6.30;;
50066;SDS011;35952;52.524;13.340;2023-11-21T13:23:37;10.80;;;6.73;;
50066;SDS011;35952;52.524;13.340;2023-11-21T13:26:03;11.80;;;7.63;;
50066;SDS011;35952;52.524;13.340;2023-11-21T13:28:29;11.60;;;8.23;;
50066;SDS011;35952;52.524;13.340;2023-11-21T13:30:58;11.07;;;8.10;;
50066;SDS011;35952;52.524;13.340;2023-11-21T13:33:33;14.50;;;9.73;;
50066;SDS011;35952;52.524;13.340;2023-11-21T13:36:02;13.30;;;9.90;;
50066;SDS011;35952;52.524;13.340;2023-11-21T13:38:32;11.40;;;8.53;;
50066;SDS011;35952;52.524;13.340;2023-11-21T13:41:00;14.37;;;9.13;;
50066;SDS011;35952;52.524;13.340;2023-11-21T13:43:26;14.20;;;9.80;;
50066;SDS011;35952;52.524;13.340;2023-11-21T13:45:53;12.13;;;9.97;;
50066;SDS011;35952;52.524;13.340;2023-11-21T13:48:29;13.50;;;10.30;;
50066;SDS011;35952;52.524;13.340;2023-11-21T13:51:05;12.33;;;9.40;;
50066;SDS011;35952;52.524;13.340;2023-11-21T13:53:45;15.93;;;9.90;;
50066;SDS011;35952;52.524;13.340;2023-11-21T13:56:15;14.53;;;9.17;;
50066;SDS011;35952;52.524;13.340;2023-11-21T13:58:53;18.77;;;12.13;;
50066;SDS011;35952;52.524;13.340;2023-11-21T14:01:21;45.37;;;36.60;;
50066;SDS011;35952;52.524;13.340;2023-11-21T14:03:57;28.90;;;23.07;;
50066;SDS011;35952;52.524;13.340;2023-11-21T14:06:34;24.80;;;14.90;;
50066;SDS011;35952;52.524;13.340;2023-11-21T14:09:10;23.80;;;13.93;;
50066;SDS011;35952;52.524;13.340;2023-11-21T14:11:38;26.63;;;14.87;;
50066;SDS011;35952;52.524;13.340;2023-11-21T14:14:04;34.60;;;18.07;;
50066;SDS011;35952;52.524;13.340;2023-11-21T14:16:30;23.57;;;12.97;;
50066;SDS011;35952;52.524;13.340;2023-11-21T14:18:56;21.13;;;13.13;;
50066;SDS011;35952;52.524;13.340;2023-11-21T14:21:28;18.67;;;13.77;;
50066;SDS011;35952;52.524;13.340;2023-11-21T14:23:54;22.17;;;12.60;;
50066;SDS011;35952;52.524;13.340;2023-11-21T14:26:20;17.33;;;12.67;;
50066;SDS011;35952;52.524;13.340;2023-11-21T14:28:46;19.60;;;12.60;;
50066;SDS011;35952;52.524;13.340;2023-11-21T14:31:14;23.80;;;14.30;;
50066;SDS011;35952;52.524;13.340;2023-11-21T14:33:42;20.47;;;12.83;;
50066;SDS011;35952;52.524;13.340;2023-11-21T14:36:10;19.20;;;12.90;;
50066;SDS011;35952;52.524;13.340;2023-11-21T14:38:36;18.30;;;12.00;;
50066;SDS011;35952;52.524;13.340;2023-11-21T14:41:06;21.23;;;14.73;;
50066;SDS011;35952;52.524;13.340;2023-11-21T14:43:36;19.10;;;14.13;;
50066;SDS011;35952;52.524;13.340;2023-11-21T14:46:03;20.83;;;14.40;;
50066;SDS011;35952;52.524;13.340;2023-11-21T14:48:31;23.40;;;13.87;;
50066;SDS011;35952;52.524;13.340;2023-11-21T14:51:12;21.67;;;14.10;;
50066;SDS011;35952;52.524;13.340;2023-11-21T14:53:52;21.57;;;14.27;;